Terminal Aerodrome Forecast
Issued by NWS

Home | Current Version | Previous Version | Text Only | Print | Product List | Glossary On
Versions: 1 2 3 4 5 6 7 8 9 10 11 12 13 14 15 16 17 18 19 20 21
000
FTUS43 KJKL 292337
TAFSME
TAF
KSME 292337Z 3000/3024 VRB06KT P6SM VCTS SCT035CB
     FM300200 VRB03KT 5SM -TSRA BR BKN035CB
      TEMPO 3002/3003 30010G20KT 2SM +TSRA BR BKN025CB
     FM300300 VRB03KT P6SM VCTS SCT035 BKN050CB
     FM300400 VRB03KT 2SM BR VCSH OVC025
     FM301500 VRB06KT P6SM SCT030=

USA.gov is the U.S. government's official web portal to all federal, state and local government web resources and services.